createdAt,value
2022-12-22T00:00:32.329Z,0.31
2022-12-22T00:03:54.359Z,0.21
2022-12-22T00:07:16.169Z,0.19
2022-12-22T00:10:37.920Z,0.37
2022-12-22T00:14:02.676Z,0.30
2022-12-22T00:17:34.371Z,0.41
2022-12-22T00:20:56.720Z,0.35
2022-12-22T00:24:18.801Z,0.42
2022-12-22T00:27:46.263Z,0.49
2022-12-22T00:31:08.316Z,0.50
2022-12-22T00:34:40.198Z,0.57
2022-12-22T00:38:02.207Z,0.62
2022-12-22T00:41:24.791Z,0.59
2022-12-22T00:44:46.569Z,0.53
2022-12-22T00:48:07.968Z,0.44
2022-12-22T00:51:31.182Z,0.40
2022-12-22T00:54:52.685Z,0.53
2022-12-22T00:58:14.565Z,0.58
2022-12-22T01:01:35.998Z,0.56
2022-12-22T01:04:57.615Z,0.60
2022-12-22T01:08:19.528Z,0.75
2022-12-22T01:11:41.120Z,0.67
2022-12-22T01:15:02.683Z,0.70
2022-12-22T01:18:25.764Z,0.75
2022-12-22T01:21:47.459Z,0.72
2022-12-22T01:25:08.834Z,0.70
2022-12-22T01:28:34.928Z,0.67
2022-12-22T01:31:56.695Z,0.71
2022-12-22T01:35:18.357Z,0.70
2022-12-22T01:38:40.040Z,0.73
2022-12-22T01:42:01.879Z,0.81
2022-12-22T01:45:43.499Z,0.60
2022-12-22T01:49:04.939Z,0.77
2022-12-22T01:52:31.639Z,0.59
2022-12-22T01:55:53.257Z,0.74
2022-12-22T01:59:18.521Z,0.75
2022-12-22T02:02:41.239Z,0.86
2022-12-22T02:06:17.406Z,0.85
2022-12-22T02:10:10.169Z,0.87
2022-12-22T02:14:07.617Z,0.88
2022-12-22T02:17:47.914Z,0.89
2022-12-22T02:21:15.764Z,0.90
2022-12-22T02:24:43.405Z,0.85
2022-12-22T02:28:06.476Z,0.94
2022-12-22T02:31:28.432Z,0.88
2022-12-22T02:34:50.259Z,0.84
2022-12-22T02:38:25.294Z,0.88
2022-12-22T02:42:09.258Z,0.87
2022-12-22T02:45:33.859Z,0.90
2022-12-22T02:49:09.702Z,0.89
2022-12-22T02:52:37.201Z,0.73
2022-12-22T02:55:59.387Z,0.88
2022-12-22T02:59:21.014Z,0.75
2022-12-22T03:02:43.009Z,0.74
2022-12-22T03:06:04.593Z,0.59
2022-12-22T03:09:26.419Z,0.55
2022-12-22T03:12:48.011Z,0.63
2022-12-22T03:16:10.899Z,0.58
2022-12-22T03:19:32.999Z,0.64
2022-12-22T03:22:54.950Z,0.55
2022-12-22T03:25:58.007Z,0.52
2022-12-22T03:29:01.307Z,0.58
2022-12-22T03:32:04.532Z,0.52
2022-12-22T03:35:08.632Z,0.64
2022-12-22T03:38:12.595Z,0.73
2022-12-22T03:41:34.257Z,0.81
2022-12-22T03:44:56.351Z,0.79
2022-12-22T03:47:59.558Z,0.78
2022-12-22T03:51:02.476Z,0.86
2022-12-22T03:54:05.810Z,0.85
2022-12-22T03:57:08.804Z,0.91
2022-12-22T04:00:12.464Z,0.90
2022-12-22T04:03:16.162Z,0.81
2022-12-22T04:06:21.288Z,0.61
2022-12-22T04:09:26.117Z,0.72
2022-12-22T04:12:47.370Z,0.79
2022-12-22T04:15:50.614Z,0.55
2022-12-22T04:18:53.584Z,0.64
2022-12-22T04:21:56.937Z,0.62
2022-12-22T04:24:59.842Z,0.54
2022-12-22T04:28:03.153Z,0.50
2022-12-22T04:31:06.043Z,0.42
2022-12-22T04:34:09.391Z,0.44
2022-12-22T04:37:17.541Z,0.39
2022-12-22T04:40:21.337Z,0.46
2022-12-22T04:43:24.941Z,0.53
2022-12-22T04:46:28.307Z,0.54
2022-12-22T04:49:31.625Z,0.62
2022-12-22T04:52:34.883Z,0.67
2022-12-22T04:55:37.810Z,0.77
2022-12-22T04:58:41.045Z,0.72
2022-12-22T05:01:44.275Z,0.70
2022-12-22T05:04:48.169Z,0.69
2022-12-22T05:07:51.075Z,0.71
2022-12-22T05:10:55.710Z,0.78
2022-12-22T05:14:05.255Z,0.84
2022-12-22T05:17:10.427Z,0.86
2022-12-22T05:20:13.421Z,0.88
2022-12-22T05:23:16.633Z,0.90
2022-12-22T05:26:20.149Z,0.92
2022-12-22T05:29:23.348Z,0.99
2022-12-22T05:32:26.399Z,0.97
2022-12-22T05:35:29.773Z,1.02
2022-12-22T05:38:32.713Z,0.93
2022-12-22T05:41:36.921Z,0.97
2022-12-22T05:44:39.843Z,1.00
2022-12-22T05:47:45.413Z,1.04
2022-12-22T05:50:48.366Z,1.11
2022-12-22T05:53:51.633Z,1.05
2022-12-22T05:56:54.551Z,1.05
2022-12-22T05:59:57.816Z,1.05
2022-12-22T06:03:01.306Z,1.00
2022-12-22T06:06:05.152Z,0.94
2022-12-22T06:09:08.339Z,1.01
2022-12-22T06:12:11.613Z,1.00
2022-12-22T06:15:15.489Z,1.02
2022-12-22T06:18:18.751Z,0.95
2022-12-22T06:21:22.832Z,0.92
2022-12-22T06:24:26.147Z,0.92
2022-12-22T06:27:29.989Z,0.83
2022-12-22T06:30:33.989Z,0.98
2022-12-22T06:33:36.987Z,1.05
2022-12-22T06:36:40.146Z,1.06
2022-12-22T06:39:43.028Z,1.03
2022-12-22T06:43:08.808Z,1.14
2022-12-22T06:46:12.415Z,1.23
2022-12-22T06:49:15.777Z,1.23
2022-12-22T06:52:19.606Z,1.18
2022-12-22T06:55:24.890Z,1.24
2022-12-22T06:58:27.927Z,1.24
2022-12-22T07:01:32.552Z,1.28
2022-12-22T07:04:35.580Z,1.25
2022-12-22T07:07:38.920Z,1.37
2022-12-22T07:11:00.152Z,1.37
2022-12-22T07:14:03.497Z,1.33
2022-12-22T07:17:06.474Z,1.38
2022-12-22T07:20:10.853Z,1.43
2022-12-22T07:23:13.826Z,1.45
2022-12-22T07:26:17.170Z,1.57
2022-12-22T07:29:20.207Z,1.67
2022-12-22T07:32:23.429Z,1.66
2022-12-22T07:35:26.374Z,1.62
2022-12-22T07:38:31.339Z,1.44
2022-12-22T07:41:52.687Z,1.55
2022-12-22T07:44:55.933Z,1.60
2022-12-22T07:48:00.565Z,1.53
2022-12-22T07:51:06.314Z,1.57
2022-12-22T07:54:11.887Z,1.58
2022-12-22T07:57:15.261Z,1.56
2022-12-22T08:00:19.891Z,1.61
2022-12-22T08:03:24.042Z,1.66
2022-12-22T08:06:27.169Z,1.78
2022-12-22T08:09:32.740Z,1.91
2022-12-22T08:12:39.352Z,1.93
2022-12-22T08:15:42.729Z,1.92
2022-12-22T08:18:45.849Z,1.94
2022-12-22T08:21:52.895Z,1.68
2022-12-22T08:24:57.325Z,1.96
2022-12-22T08:28:01.000Z,2.04
2022-12-22T08:31:06.119Z,2.28
2022-12-22T08:34:11.088Z,2.39
2022-12-22T08:37:15.642Z,2.62
2022-12-22T08:40:24.569Z,2.72
2022-12-22T08:43:29.289Z,2.61
2022-12-22T08:46:32.709Z,2.74
2022-12-22T08:49:36.002Z,2.86
2022-12-22T08:52:39.314Z,2.74
2022-12-22T08:55:42.306Z,2.84
2022-12-22T08:58:45.673Z,2.76
2022-12-22T09:01:51.157Z,2.66
2022-12-22T09:04:59.359Z,2.25
2022-12-22T09:08:02.824Z,2.51
2022-12-22T09:11:06.239Z,2.45
2022-12-22T09:14:10.859Z,2.33
2022-12-22T09:17:14.312Z,2.41
2022-12-22T09:20:18.468Z,2.33
2022-12-22T09:23:21.700Z,2.26
2022-12-22T09:26:28.059Z,2.14
2022-12-22T09:29:31.504Z,2.09
2022-12-22T09:32:34.513Z,2.01
2022-12-22T09:35:41.710Z,2.14
2022-12-22T09:38:44.964Z,2.19
2022-12-22T09:41:57.665Z,2.51
2022-12-22T09:45:00.659Z,2.71
2022-12-22T09:48:09.184Z,2.75
2022-12-22T09:51:14.813Z,2.74
2022-12-22T09:54:18.230Z,3.08
2022-12-22T09:57:25.895Z,3.17
2022-12-22T10:00:29.685Z,3.12
2022-12-22T10:04:00.886Z,3.17
2022-12-22T10:07:10.697Z,3.28
2022-12-22T10:10:14.953Z,3.32
2022-12-22T10:13:19.147Z,3.38
2022-12-22T10:16:31.327Z,3.75
2022-12-22T10:19:34.314Z,3.87
2022-12-22T10:22:49.037Z,3.88
2022-12-22T10:29:20.575Z,4.82
2022-12-22T10:32:23.641Z,4.48
2022-12-22T10:35:27.206Z,4.00
2022-12-22T10:38:32.651Z,4.23
2022-12-22T10:41:44.484Z,4.26
2022-12-22T10:44:49.970Z,4.38
2022-12-22T10:47:56.212Z,4.13
2022-12-22T10:51:00.541Z,4.48
2022-12-22T10:54:05.122Z,4.52
2022-12-22T10:57:15.047Z,4.27
2022-12-22T11:00:30.328Z,3.92
2022-12-22T11:03:33.555Z,4.12
2022-12-22T11:06:43.604Z,4.25
2022-12-22T11:09:46.524Z,4.58
2022-12-22T11:13:48.874Z,4.46
2022-12-22T11:16:54.588Z,4.70
2022-12-22T11:20:30.656Z,4.65
2022-12-22T11:23:39.558Z,4.22
2022-12-22T11:27:16.987Z,4.21
2022-12-22T11:30:24.854Z,4.33
2022-12-22T11:33:57.238Z,4.51
2022-12-22T11:37:16.694Z,4.88
2022-12-22T11:40:33.592Z,4.71
2022-12-22T11:43:55.157Z,4.62
2022-12-22T11:47:18.645Z,4.49
2022-12-22T11:50:59.470Z,4.02
2022-12-22T11:54:25.758Z,4.18
2022-12-22T11:57:48.970Z,4.13
2022-12-22T12:01:20.449Z,4.13
2022-12-22T12:04:55.770Z,4.03
2022-12-22T12:08:10.409Z,3.72
2022-12-22T12:11:56.160Z,3.80
2022-12-22T12:15:02.047Z,3.26
2022-12-22T12:18:21.058Z,3.38
2022-12-22T12:21:30.656Z,3.25
2022-12-22T12:24:40.812Z,3.44
2022-12-22T12:28:14.970Z,3.60
2022-12-22T12:31:24.437Z,3.57
2022-12-22T12:34:35.172Z,3.56
2022-12-22T12:37:43.019Z,3.48
2022-12-22T12:41:12.968Z,3.59
2022-12-22T12:44:24.150Z,3.56
2022-12-22T12:47:31.868Z,3.51
2022-12-22T12:50:46.901Z,3.44
2022-12-22T12:54:38.032Z,3.34
2022-12-22T12:57:49.466Z,3.53
2022-12-22T13:05:08.923Z,3.31
2022-12-22T13:08:50.971Z,3.34
2022-12-22T13:12:13.317Z,3.25
2022-12-22T13:15:45.338Z,3.33
2022-12-22T13:18:51.108Z,3.15
2022-12-22T13:21:57.959Z,3.07
2022-12-22T13:25:02.513Z,3.08
2022-12-22T13:28:06.012Z,3.11
2022-12-22T13:31:25.574Z,3.22
2022-12-22T13:34:57.233Z,3.20
2022-12-22T13:38:03.315Z,3.11
2022-12-22T13:41:27.214Z,3.22
2022-12-22T13:44:33.478Z,3.31
2022-12-22T13:47:36.427Z,3.40
2022-12-22T13:50:44.375Z,3.54
2022-12-22T13:54:09.628Z,3.61
2022-12-22T13:57:23.564Z,3.62
2022-12-22T14:00:27.359Z,3.62
2022-12-22T14:06:54.948Z,3.37
2022-12-22T14:10:04.864Z,3.58
2022-12-22T14:13:15.369Z,3.56
2022-12-22T14:16:18.647Z,3.59
2022-12-22T14:19:23.164Z,3.57
2022-12-22T14:22:36.028Z,3.52
2022-12-22T14:25:40.939Z,3.51
2022-12-22T14:28:50.722Z,3.54
2022-12-22T14:32:02.929Z,3.55
2022-12-22T14:35:35.562Z,3.39
2022-12-22T14:38:41.278Z,3.39
2022-12-22T14:41:54.175Z,3.15
2022-12-22T14:44:57.178Z,2.90
2022-12-22T14:48:00.618Z,2.84
2022-12-22T14:51:04.500Z,2.77
2022-12-22T14:54:20.121Z,2.81
2022-12-22T14:57:35.238Z,2.75
2022-12-22T15:00:50.018Z,2.69
2022-12-22T15:04:17.252Z,2.69
2022-12-22T15:10:44.610Z,2.76
2022-12-22T15:13:48.713Z,2.75
2022-12-22T15:16:56.509Z,2.75
2022-12-22T15:20:00.320Z,2.83
2022-12-22T15:23:03.426Z,2.96
2022-12-22T15:26:06.939Z,2.92
2022-12-22T15:29:10.011Z,3.04
2022-12-22T15:32:13.843Z,2.84
2022-12-22T15:35:19.532Z,3.00
2022-12-22T15:38:24.647Z,3.20
2022-12-22T15:41:27.708Z,3.14
2022-12-22T15:44:36.796Z,3.06
2022-12-22T15:47:44.188Z,3.06
2022-12-22T15:50:47.562Z,3.11
2022-12-22T15:53:51.154Z,3.12
2022-12-22T15:56:55.541Z,3.19
2022-12-22T15:59:58.827Z,3.23
2022-12-22T16:03:04.681Z,3.26
2022-12-22T16:06:13.855Z,3.26
2022-12-22T16:09:27.864Z,3.24
2022-12-22T16:12:32.571Z,3.28
2022-12-22T16:15:35.882Z,3.30
2022-12-22T16:18:39.256Z,3.28
2022-12-22T16:21:44.221Z,3.27
2022-12-22T16:24:47.946Z,3.24
2022-12-22T16:27:51.245Z,3.30
2022-12-22T16:30:54.735Z,3.26
2022-12-22T16:33:58.034Z,3.13
2022-12-22T16:37:01.329Z,3.14
2022-12-22T16:40:06.182Z,3.14
2022-12-22T16:46:40.751Z,3.18
2022-12-22T16:49:48.083Z,3.22
2022-12-22T16:52:51.168Z,3.14
2022-12-22T16:55:54.490Z,2.99
2022-12-22T16:58:57.842Z,2.81
2022-12-22T17:02:01.259Z,2.86
2022-12-22T17:05:22.580Z,2.85
2022-12-22T17:08:30.671Z,2.83
2022-12-22T17:11:36.058Z,2.82
2022-12-22T17:14:39.722Z,2.75
2022-12-22T17:17:43.269Z,2.74
2022-12-22T17:20:49.317Z,2.68
2022-12-22T17:23:53.877Z,2.71
2022-12-22T17:27:02.240Z,2.58
2022-12-22T17:30:18.187Z,2.57
2022-12-22T17:33:21.837Z,2.58
2022-12-22T17:36:36.559Z,2.63
2022-12-22T17:39:39.907Z,2.55
2022-12-22T17:42:42.957Z,2.69
2022-12-22T17:45:47.083Z,2.91
2022-12-22T17:48:50.585Z,3.27
2022-12-22T17:51:53.848Z,3.44
2022-12-22T17:54:56.890Z,3.43
2022-12-22T17:58:01.089Z,3.48
2022-12-22T18:01:04.366Z,3.56
2022-12-22T18:04:11.817Z,3.48
2022-12-22T18:07:17.675Z,3.39
2022-12-22T18:10:30.319Z,3.40
2022-12-22T18:13:34.087Z,3.37
2022-12-22T18:16:37.553Z,3.39
2022-12-22T18:19:40.637Z,3.34
2022-12-22T18:22:45.860Z,3.35
2022-12-22T18:25:49.052Z,3.39
2022-12-22T18:28:53.649Z,3.46
2022-12-22T18:31:56.772Z,3.44
2022-12-22T18:35:00.343Z,3.60
2022-12-22T18:38:04.639Z,3.62
2022-12-22T18:41:08.540Z,3.69
2022-12-22T18:44:18.986Z,3.64
2022-12-22T18:47:23.015Z,3.66
2022-12-22T18:50:28.748Z,3.73
2022-12-22T18:53:33.713Z,3.81
2022-12-22T18:56:37.162Z,3.86
2022-12-22T18:59:40.514Z,4.07
2022-12-22T19:02:44.935Z,4.22
2022-12-22T19:05:48.863Z,4.38
2022-12-22T19:08:52.189Z,4.37
2022-12-22T19:11:55.816Z,4.19
2022-12-22T19:15:04.692Z,4.18
2022-12-22T19:18:16.697Z,4.08
2022-12-22T19:21:21.854Z,4.12
2022-12-22T19:24:25.255Z,4.07
2022-12-22T19:27:29.297Z,4.06
2022-12-22T19:30:34.011Z,4.01
2022-12-22T19:33:42.876Z,4.02
2022-12-22T19:36:46.772Z,4.05
2022-12-22T19:39:51.648Z,4.06
2022-12-22T19:42:57.176Z,4.14
2022-12-22T19:46:02.884Z,4.38
2022-12-22T19:49:08.420Z,4.23
2022-12-22T19:52:11.508Z,4.53
2022-12-22T19:55:16.712Z,4.60
2022-12-22T19:58:28.936Z,4.69
2022-12-22T20:01:33.365Z,4.66
2022-12-22T20:04:36.908Z,4.61
2022-12-22T20:07:42.157Z,4.61
2022-12-22T20:10:51.737Z,4.73
2022-12-22T20:14:01.301Z,4.89
2022-12-22T20:17:04.589Z,4.78
2022-12-22T20:20:14.635Z,4.88
2022-12-22T20:23:20.408Z,4.85
2022-12-22T20:26:25.472Z,4.88
2022-12-22T20:29:28.936Z,4.85
2022-12-22T20:32:32.653Z,4.91
2022-12-22T20:35:37.791Z,4.97
2022-12-22T20:38:42.544Z,5.03
2022-12-22T20:41:52.633Z,5.05
2022-12-22T20:45:03.922Z,5.08
2022-12-22T20:48:18.799Z,5.08
2022-12-22T20:51:23.727Z,4.94
2022-12-22T20:54:37.644Z,4.97
2022-12-22T20:57:40.868Z,4.80
2022-12-22T21:00:45.367Z,4.70
2022-12-22T21:03:48.354Z,4.60
2022-12-22T21:06:54.559Z,4.56
2022-12-22T21:09:57.554Z,4.49
2022-12-22T21:13:01.046Z,4.46
2022-12-22T21:16:04.079Z,4.35
2022-12-22T21:19:07.863Z,4.34
2022-12-22T21:22:10.959Z,4.27
2022-12-22T21:25:14.432Z,4.18
2022-12-22T21:28:36.937Z,4.13
2022-12-22T21:31:41.197Z,4.18
2022-12-22T21:34:44.247Z,4.00
2022-12-22T21:37:49.220Z,3.91
2022-12-22T21:40:52.182Z,3.89
2022-12-22T21:43:55.394Z,3.88
2022-12-22T21:46:58.989Z,3.87
2022-12-22T21:50:02.728Z,3.85
2022-12-22T21:53:05.649Z,3.79
2022-12-22T21:56:19.494Z,3.84
2022-12-22T21:59:22.667Z,3.78
2022-12-22T22:02:26.011Z,3.79
2022-12-22T22:05:36.540Z,3.82
2022-12-22T22:08:39.749Z,3.81
2022-12-22T22:12:01.552Z,3.73
2022-12-22T22:15:06.163Z,3.73
2022-12-22T22:18:18.608Z,3.68
2022-12-22T22:21:21.458Z,3.67
2022-12-22T22:24:26.962Z,3.72
2022-12-22T22:27:29.984Z,3.69
2022-12-22T22:30:33.334Z,3.65
2022-12-22T22:33:37.767Z,3.73
2022-12-22T22:36:41.063Z,3.74
2022-12-22T22:39:44.769Z,3.78
2022-12-22T22:42:48.104Z,3.85
2022-12-22T22:45:51.667Z,3.92
2022-12-22T22:48:58.701Z,3.94
2022-12-22T22:52:01.720Z,4.06
2022-12-22T22:55:05.315Z,4.11
2022-12-22T22:58:08.798Z,4.23
2022-12-22T23:01:12.369Z,4.36
2022-12-22T23:04:15.354Z,4.43
2022-12-22T23:07:18.669Z,4.50
2022-12-22T23:10:21.629Z,4.49
2022-12-22T23:13:24.913Z,4.42
2022-12-22T23:16:32.407Z,4.38
2022-12-22T23:19:40.817Z,4.36
2022-12-22T23:22:43.780Z,4.20
2022-12-22T23:25:49.767Z,4.14
2022-12-22T23:28:55.507Z,4.15
2022-12-22T23:32:01.072Z,4.02
2022-12-22T23:35:04.132Z,4.09
2022-12-22T23:38:08.846Z,4.07
2022-12-22T23:41:13.043Z,4.01
2022-12-22T23:44:16.975Z,3.96
2022-12-22T23:47:19.911Z,4.03
2022-12-22T23:50:24.191Z,4.07
2022-12-22T23:53:27.176Z,4.06
2022-12-22T23:56:31.811Z,3.97
2022-12-22T23:59:34.719Z,4.05
